createdAt,value
2023-05-27T00:00:50.641Z,67.93
2023-05-27T00:03:18.543Z,68.57
2023-05-27T00:05:45.732Z,67.62
2023-05-27T00:08:13.601Z,67.68
2023-05-27T00:10:40.778Z,68.76
2023-05-27T00:13:08.112Z,69.56
2023-05-27T00:15:35.314Z,68.83
2023-05-27T00:18:03.685Z,69.37
2023-05-27T00:20:33.928Z,70.07
2023-05-27T00:23:01.488Z,70.92
2023-05-27T00:25:28.844Z,70.50
2023-05-27T00:27:57.212Z,70.52
2023-05-27T00:30:24.615Z,70.86
2023-05-27T00:32:52.095Z,70.29
2023-05-27T00:35:19.454Z,69.83
2023-05-27T00:37:46.827Z,70.01
2023-05-27T00:40:16.694Z,69.72
2023-05-27T00:42:46.632Z,69.81
2023-05-27T00:45:15.758Z,69.85
2023-05-27T00:47:43.652Z,69.57
2023-05-27T00:50:11.123Z,69.16
2023-05-27T00:52:38.668Z,69.56
2023-05-27T00:55:08.006Z,69.52
2023-05-27T00:57:35.702Z,69.27
2023-05-27T01:00:08.265Z,70.00
2023-05-27T01:02:36.130Z,69.27
2023-05-27T01:05:03.478Z,69.57
2023-05-27T01:08:03.273Z,69.11
2023-05-27T01:10:33.423Z,68.60
2023-05-27T01:13:14.287Z,68.29
2023-05-27T01:15:42.527Z,67.76
2023-05-27T01:18:13.212Z,68.04
2023-05-27T01:20:42.852Z,68.18
2023-05-27T01:23:10.961Z,68.81
2023-05-27T01:25:38.692Z,69.34
2023-05-27T01:28:06.134Z,70.07
2023-05-27T01:30:33.296Z,70.01
2023-05-27T01:33:09.460Z,70.02
2023-05-27T01:35:44.462Z,68.59
2023-05-27T01:38:17.488Z,68.82
2023-05-27T01:40:46.175Z,68.08
2023-05-27T01:43:16.458Z,67.91
2023-05-27T01:45:44.455Z,68.44
2023-05-27T01:48:11.930Z,67.62
2023-05-27T01:50:39.372Z,67.55
2023-05-27T01:53:07.154Z,67.39
2023-05-27T01:55:34.815Z,67.26
2023-05-27T01:58:02.279Z,67.02
2023-05-27T02:00:29.728Z,67.53
2023-05-27T02:02:57.213Z,67.52
2023-05-27T02:05:24.979Z,68.00
2023-05-27T02:07:52.839Z,68.48
2023-05-27T02:10:20.073Z,68.21
2023-05-27T02:12:49.398Z,67.40
2023-05-27T02:15:16.968Z,67.27
2023-05-27T02:17:52.404Z,67.22
2023-05-27T02:20:19.806Z,67.88
2023-05-27T02:22:47.103Z,68.17
2023-05-27T02:25:14.404Z,67.76
2023-05-27T02:27:43.296Z,68.73
2023-05-27T02:30:12.266Z,69.06
2023-05-27T02:32:39.656Z,70.06
2023-05-27T02:35:07.313Z,70.07
2023-05-27T02:37:34.764Z,70.77
2023-05-27T02:40:02.046Z,71.23
2023-05-27T02:42:29.430Z,71.18
2023-05-27T02:44:56.700Z,71.11
2023-05-27T02:47:24.157Z,71.58
2023-05-27T02:49:51.513Z,71.69
2023-05-27T02:52:19.070Z,72.14
2023-05-27T02:54:46.275Z,71.35
2023-05-27T02:57:13.554Z,68.95
2023-05-27T02:59:41.124Z,69.53
2023-05-27T03:02:08.277Z,70.88
2023-05-27T03:04:36.401Z,71.25
2023-05-27T03:07:03.614Z,70.83
2023-05-27T03:09:30.967Z,69.93
2023-05-27T03:11:58.885Z,70.29
2023-05-27T03:14:26.386Z,70.84
2023-05-27T03:16:55.671Z,70.49
2023-05-27T03:19:25.835Z,70.56
2023-05-27T03:21:53.512Z,70.09
2023-05-27T03:24:21.203Z,70.49
2023-05-27T03:26:48.534Z,70.95
2023-05-27T03:29:17.146Z,71.24
2023-05-27T03:31:44.392Z,71.15
2023-05-27T03:34:15.738Z,70.09
2023-05-27T03:36:47.008Z,70.77
2023-05-27T03:39:16.490Z,71.29
2023-05-27T03:41:50.608Z,71.22
2023-05-27T03:44:18.372Z,71.01
2023-05-27T03:46:45.936Z,70.89
2023-05-27T03:49:14.406Z,71.18
2023-05-27T03:51:41.777Z,70.92
2023-05-27T03:54:09.063Z,70.72
2023-05-27T03:56:36.235Z,71.26
2023-05-27T03:59:03.657Z,71.09
2023-05-27T04:01:31.128Z,70.60
2023-05-27T04:03:58.610Z,70.65
2023-05-27T04:06:26.253Z,71.07
2023-05-27T04:08:53.533Z,71.08
2023-05-27T04:11:21.802Z,72.04
2023-05-27T04:13:51.846Z,72.09
2023-05-27T04:16:19.440Z,72.81
2023-05-27T04:18:50.134Z,72.16
2023-05-27T04:21:17.557Z,71.33
2023-05-27T04:23:44.907Z,70.68
2023-05-27T04:26:13.314Z,71.75
2023-05-27T04:28:46.749Z,72.45
2023-05-27T04:31:14.553Z,71.90
2023-05-27T04:33:49.300Z,71.93
2023-05-27T04:36:18.206Z,72.37
2023-05-27T04:38:57.202Z,72.59
2023-05-27T04:41:29.535Z,72.89
2023-05-27T04:44:29.491Z,72.75
2023-05-27T04:46:59.747Z,72.27
2023-05-27T04:49:31.575Z,72.33
2023-05-27T04:51:59.183Z,72.48
2023-05-27T04:54:26.814Z,73.46
2023-05-27T04:56:55.651Z,73.23
2023-05-27T04:59:46.994Z,74.99
2023-05-27T05:02:23.066Z,73.38
2023-05-27T05:05:16.694Z,73.44
2023-05-27T05:07:45.069Z,73.54
2023-05-27T05:10:19.975Z,74.13
2023-05-27T05:12:49.954Z,74.16
2023-05-27T05:15:17.412Z,74.24
2023-05-27T05:17:44.784Z,74.10
2023-05-27T05:20:13.602Z,74.06
2023-05-27T05:22:41.454Z,73.55
2023-05-27T05:25:09.973Z,73.31
2023-05-27T05:27:43.382Z,69.63
2023-05-27T05:30:12.853Z,69.19
2023-05-27T05:32:40.229Z,69.58
2023-05-27T05:35:09.137Z,71.19
2023-05-27T05:37:37.726Z,71.14
2023-05-27T05:40:05.512Z,71.58
2023-05-27T05:42:36.156Z,71.88
2023-05-27T05:45:03.869Z,71.78
2023-05-27T05:47:32.704Z,72.31
2023-05-27T05:50:08.951Z,71.27
2023-05-27T05:52:37.633Z,70.93
2023-05-27T05:55:07.189Z,71.59
2023-05-27T05:57:36.293Z,71.32
2023-05-27T06:00:06.587Z,70.95
2023-05-27T06:02:45.289Z,71.06
2023-05-27T06:05:23.478Z,70.06
2023-05-27T06:07:50.744Z,69.43
2023-05-27T06:10:18.544Z,69.17
2023-05-27T06:12:46.298Z,69.12
2023-05-27T06:15:13.654Z,70.39
2023-05-27T06:17:54.569Z,71.30
2023-05-27T06:20:21.873Z,71.46
2023-05-27T06:22:51.600Z,70.76
2023-05-27T06:25:37.127Z,70.50
2023-05-27T06:28:07.418Z,71.94
2023-05-27T06:30:35.434Z,71.19
2023-05-27T06:33:04.789Z,71.18
2023-05-27T06:35:33.547Z,71.35
2023-05-27T06:38:01.318Z,71.15
2023-05-27T06:40:28.872Z,71.25
2023-05-27T06:42:56.771Z,71.01
2023-05-27T06:46:02.400Z,71.78
2023-05-27T06:48:47.930Z,70.65
2023-05-27T06:51:16.690Z,71.13
2023-05-27T06:53:44.141Z,70.56
2023-05-27T06:56:15.284Z,70.31
2023-05-27T06:59:03.388Z,70.73
2023-05-27T07:01:32.781Z,69.43
2023-05-27T07:04:02.628Z,70.16
2023-05-27T07:07:08.576Z,67.88
2023-05-27T07:09:36.854Z,67.42
2023-05-27T07:12:04.626Z,67.67
2023-05-27T07:14:52.912Z,68.43
2023-05-27T07:17:23.781Z,68.36
2023-05-27T07:19:51.483Z,66.63
2023-05-27T07:22:21.116Z,65.50
2023-05-27T07:24:48.567Z,66.93
2023-05-27T07:27:15.804Z,67.26
2023-05-27T07:29:51.741Z,67.57
2023-05-27T07:32:37.683Z,68.13
2023-05-27T07:35:05.613Z,67.49
2023-05-27T07:37:32.875Z,67.08
2023-05-27T07:40:00.440Z,67.24
2023-05-27T07:42:31.866Z,66.67
2023-05-27T07:45:00.388Z,66.55
2023-05-27T07:47:27.867Z,66.28
2023-05-27T07:49:55.075Z,66.14
2023-05-27T07:52:45.411Z,67.86
2023-05-27T07:55:24.969Z,68.32
2023-05-27T07:57:52.185Z,68.36
2023-05-27T08:00:19.653Z,68.98
2023-05-27T08:02:55.984Z,69.07
2023-05-27T08:05:34.037Z,69.45
2023-05-27T08:08:13.183Z,69.48
2023-05-27T08:10:59.197Z,69.83
2023-05-27T08:13:46.641Z,71.14
2023-05-27T08:16:33.961Z,73.07
2023-05-27T08:19:23.444Z,73.88
2023-05-27T08:22:05.383Z,74.13
2023-05-27T08:24:52.768Z,74.19
2023-05-27T08:28:02.850Z,73.28
2023-05-27T08:30:47.966Z,73.54
2023-05-27T08:33:24.745Z,73.11
2023-05-27T08:35:52.592Z,72.15
2023-05-27T08:38:36.923Z,71.56
2023-05-27T08:41:17.874Z,71.35
2023-05-27T08:43:46.210Z,72.29
2023-05-27T08:46:15.306Z,72.41
2023-05-27T08:48:42.951Z,72.30
2023-05-27T08:51:11.139Z,72.81
2023-05-27T08:53:42.296Z,72.95
2023-05-27T08:56:13.914Z,72.23
2023-05-27T08:58:48.238Z,73.49
2023-05-27T09:01:24.926Z,74.49
2023-05-27T09:03:53.017Z,75.20
2023-05-27T09:06:20.278Z,75.73
2023-05-27T09:08:52.012Z,76.82
2023-05-27T09:11:27.683Z,78.38
2023-05-27T09:13:56.998Z,79.15
2023-05-27T09:16:28.498Z,78.45
2023-05-27T09:18:57.401Z,76.03
2023-05-27T09:21:27.994Z,79.05
2023-05-27T09:24:03.225Z,78.65
2023-05-27T09:26:31.146Z,78.60
2023-05-27T09:29:04.228Z,77.93
2023-05-27T09:31:32.242Z,76.79
2023-05-27T09:33:59.848Z,76.35
2023-05-27T09:36:29.848Z,75.79
2023-05-27T09:38:59.937Z,72.88
2023-05-27T09:41:28.492Z,74.78
2023-05-27T09:43:57.349Z,75.33
2023-05-27T09:46:26.567Z,75.63
2023-05-27T09:48:55.497Z,74.43
2023-05-27T09:51:25.154Z,74.62
2023-05-27T09:54:01.196Z,76.15
2023-05-27T09:56:29.634Z,73.27
2023-05-27T09:58:58.192Z,75.27
2023-05-27T10:01:29.779Z,75.17
2023-05-27T10:03:59.854Z,76.57
2023-05-27T10:06:28.885Z,76.44
2023-05-27T10:08:57.308Z,77.27
2023-05-27T10:11:30.035Z,76.97
2023-05-27T10:13:57.689Z,78.41
2023-05-27T10:16:28.929Z,77.25
2023-05-27T10:18:58.351Z,76.62
2023-05-27T10:21:29.304Z,77.92
2023-05-27T10:24:05.436Z,76.64
2023-05-27T10:26:34.557Z,77.27
2023-05-27T10:29:11.540Z,77.09
2023-05-27T10:31:53.727Z,75.58
2023-05-27T10:34:21.642Z,77.11
2023-05-27T10:37:01.241Z,77.80
2023-05-27T10:39:30.125Z,77.25
2023-05-27T10:41:58.910Z,77.54
2023-05-27T10:44:30.470Z,77.30
2023-05-27T10:47:11.994Z,77.48
2023-05-27T10:49:41.542Z,76.01
2023-05-27T10:52:32.803Z,75.88
2023-05-27T10:55:00.447Z,75.84
2023-05-27T10:57:31.877Z,76.95
2023-05-27T11:00:05.846Z,76.57
2023-05-27T11:02:33.956Z,74.02
2023-05-27T11:05:01.068Z,75.37
2023-05-27T11:07:28.269Z,76.03
2023-05-27T11:09:56.567Z,76.31
2023-05-27T11:12:25.381Z,76.13
2023-05-27T11:14:54.813Z,75.88
2023-05-27T11:17:22.647Z,74.65
2023-05-27T11:19:51.233Z,72.85
2023-05-27T11:22:20.489Z,72.32
2023-05-27T11:25:01.623Z,73.80
2023-05-27T11:27:36.939Z,74.67
2023-05-27T11:30:13.686Z,72.57
2023-05-27T11:32:45.736Z,73.83
2023-05-27T11:35:17.381Z,75.45
2023-05-27T11:37:51.714Z,74.99
2023-05-27T11:40:19.994Z,73.16
2023-05-27T11:42:47.963Z,75.21
2023-05-27T11:45:20.133Z,72.37
2023-05-27T11:47:56.678Z,74.38
2023-05-27T11:50:29.141Z,72.87
2023-05-27T11:52:58.339Z,75.48
2023-05-27T11:55:26.352Z,75.90
2023-05-27T11:57:53.955Z,76.21
2023-05-27T12:00:21.141Z,77.40
2023-05-27T12:02:49.755Z,75.93
2023-05-27T12:07:50.989Z,75.83
2023-05-27T12:10:18.393Z,76.09
2023-05-27T12:12:45.928Z,75.44
2023-05-27T12:15:13.217Z,73.92
2023-05-27T12:17:40.352Z,74.36
2023-05-27T12:20:20.198Z,74.06
2023-05-27T12:22:47.237Z,74.89
2023-05-27T12:25:14.392Z,72.51
2023-05-27T12:27:41.637Z,74.44
2023-05-27T12:30:09.479Z,73.82
2023-05-27T12:32:36.509Z,73.43
2023-05-27T12:35:03.735Z,73.43
2023-05-27T12:37:30.769Z,73.86
2023-05-27T12:40:00.589Z,73.75
2023-05-27T12:42:29.694Z,72.72
2023-05-27T12:44:56.935Z,72.21
2023-05-27T12:47:23.956Z,72.68
2023-05-27T12:49:52.282Z,73.03
2023-05-27T12:52:19.579Z,69.99
2023-05-27T12:54:46.632Z,68.92
2023-05-27T12:57:13.806Z,71.07
2023-05-27T12:59:42.864Z,70.70
2023-05-27T13:02:12.197Z,70.64
2023-05-27T13:04:40.722Z,70.40
2023-05-27T13:07:12.187Z,69.12
2023-05-27T13:09:41.044Z,68.77
2023-05-27T13:12:08.451Z,67.70
2023-05-27T13:14:35.656Z,68.96
2023-05-27T13:17:03.960Z,69.42
2023-05-27T13:19:31.296Z,69.25
2023-05-27T13:21:59.027Z,69.65
2023-05-27T13:24:26.234Z,68.48
2023-05-27T13:26:53.384Z,69.73
2023-05-27T13:29:20.711Z,69.14
2023-05-27T13:31:54.020Z,68.36
2023-05-27T13:34:21.554Z,70.65
2023-05-27T13:36:48.798Z,70.88
2023-05-27T13:39:16.153Z,70.60
2023-05-27T13:41:43.403Z,70.58
2023-05-27T13:44:11.968Z,71.00
2023-05-27T13:46:39.790Z,71.82
2023-05-27T13:49:07.427Z,68.13
2023-05-27T13:51:34.450Z,69.47
2023-05-27T13:54:01.930Z,66.94
2023-05-27T13:56:29.034Z,67.44
2023-05-27T13:58:56.363Z,66.23
2023-05-27T14:01:23.551Z,66.25
2023-05-27T14:03:51.135Z,66.43
2023-05-27T14:06:18.244Z,67.35
2023-05-27T14:08:45.622Z,68.61
2023-05-27T14:11:12.739Z,69.08
2023-05-27T14:13:39.812Z,64.20
2023-05-27T14:16:07.295Z,65.49
2023-05-27T14:18:35.430Z,66.06
2023-05-27T14:21:02.764Z,62.84
2023-05-27T14:23:30.040Z,64.36
2023-05-27T14:25:57.438Z,65.68
2023-05-27T14:28:24.509Z,66.01
2023-05-27T14:30:51.751Z,65.20
2023-05-27T14:33:18.937Z,65.30
2023-05-27T14:35:47.706Z,66.46
2023-05-27T14:38:18.380Z,66.19
2023-05-27T14:40:46.313Z,64.19
2023-05-27T14:43:13.672Z,64.32
2023-05-27T14:45:44.194Z,62.72
2023-05-27T14:48:11.766Z,62.85
2023-05-27T14:50:39.134Z,63.23
2023-05-27T14:53:07.629Z,63.58
2023-05-27T14:55:36.650Z,63.34
2023-05-27T14:58:08.006Z,62.88
2023-05-27T15:00:35.363Z,63.21
2023-05-27T15:03:03.036Z,62.69
2023-05-27T15:05:33.306Z,62.90
2023-05-27T15:08:00.552Z,64.07
2023-05-27T15:10:27.864Z,64.24
2023-05-27T15:12:55.178Z,63.92
2023-05-27T15:15:22.659Z,61.88
2023-05-27T15:17:54.760Z,61.82
2023-05-27T15:20:21.990Z,61.11
2023-05-27T15:22:49.297Z,60.55
2023-05-27T15:25:16.617Z,60.97
2023-05-27T15:27:43.981Z,61.57
2023-05-27T15:30:11.764Z,62.30
2023-05-27T15:32:39.064Z,58.78
2023-05-27T15:35:06.961Z,58.93
2023-05-27T15:37:35.970Z,60.22
2023-05-27T15:40:03.601Z,60.04
2023-05-27T15:42:31.964Z,60.88
2023-05-27T15:44:59.322Z,61.36
2023-05-27T15:47:27.093Z,61.08
2023-05-27T15:49:54.435Z,61.73
2023-05-27T15:52:21.773Z,62.14
2023-05-27T15:54:50.235Z,61.76
2023-05-27T15:57:17.739Z,60.77
2023-05-27T15:59:46.020Z,61.63
2023-05-27T16:02:13.317Z,59.84
2023-05-27T16:04:41.403Z,60.00
2023-05-27T16:07:08.777Z,60.75
2023-05-27T16:09:36.072Z,61.38
2023-05-27T16:12:03.664Z,61.56
2023-05-27T16:14:31.033Z,61.91
2023-05-27T16:16:58.279Z,59.66
2023-05-27T16:19:26.143Z,59.95
2023-05-27T16:21:53.583Z,60.58
2023-05-27T16:24:22.664Z,60.98
2023-05-27T16:26:49.870Z,59.23
2023-05-27T16:29:17.320Z,57.32
2023-05-27T16:31:44.738Z,56.74
2023-05-27T16:34:12.116Z,57.88
2023-05-27T16:36:39.361Z,55.89
2023-05-27T16:39:06.721Z,57.86
2023-05-27T16:41:33.985Z,58.96
2023-05-27T16:44:01.480Z,59.50
2023-05-27T16:46:28.886Z,59.71
2023-05-27T16:48:57.120Z,60.75
2023-05-27T16:51:24.793Z,60.86
2023-05-27T16:53:52.333Z,61.16
2023-05-27T16:56:19.666Z,61.41
2023-05-27T16:58:46.934Z,61.42
2023-05-27T17:01:14.427Z,61.88
2023-05-27T17:03:41.829Z,61.17
2023-05-27T17:06:09.111Z,61.10
2023-05-27T17:08:36.412Z,61.47
2023-05-27T17:11:04.315Z,61.48
2023-05-27T17:13:31.684Z,60.40
2023-05-27T17:15:59.193Z,61.07
2023-05-27T17:18:28.142Z,61.14
2023-05-27T17:20:56.119Z,60.99
2023-05-27T17:23:26.624Z,61.49
2023-05-27T17:25:53.913Z,61.91
2023-05-27T17:28:21.171Z,62.20
2023-05-27T17:30:48.427Z,62.30
2023-05-27T17:33:16.578Z,61.45
2023-05-27T17:35:43.847Z,61.59
2023-05-27T17:38:12.319Z,62.32
2023-05-27T17:40:39.591Z,62.67
2023-05-27T17:43:08.225Z,61.88
2023-05-27T17:45:35.391Z,60.64
2023-05-27T17:48:02.911Z,60.63
2023-05-27T17:50:30.798Z,60.75
2023-05-27T17:52:58.330Z,61.53
2023-05-27T17:55:25.558Z,62.10
2023-05-27T17:57:52.903Z,62.09
2023-05-27T18:00:20.228Z,62.82
2023-05-27T18:02:47.523Z,62.62
2023-05-27T18:05:14.861Z,62.95
2023-05-27T18:07:42.510Z,63.56
2023-05-27T18:10:11.399Z,62.60
2023-05-27T18:12:38.635Z,63.20
2023-05-27T18:15:07.736Z,63.97
2023-05-27T18:17:34.931Z,63.99
2023-05-27T18:20:02.324Z,64.56
2023-05-27T18:22:29.719Z,64.82
2023-05-27T18:24:59.493Z,65.41
2023-05-27T18:27:26.866Z,65.45
2023-05-27T18:29:54.223Z,65.61
2023-05-27T18:32:21.910Z,65.38
2023-05-27T18:34:49.267Z,65.54
2023-05-27T18:37:16.633Z,65.88
2023-05-27T18:39:43.880Z,65.87
2023-05-27T18:42:11.131Z,65.88
2023-05-27T18:44:38.380Z,66.41
2023-05-27T18:47:09.366Z,66.74
2023-05-27T18:49:36.499Z,67.00
2023-05-27T18:52:03.693Z,67.17
2023-05-27T18:54:30.912Z,67.43
2023-05-27T18:56:58.050Z,67.35
2023-05-27T18:59:25.456Z,67.17
2023-05-27T19:01:52.807Z,67.38
2023-05-27T19:04:20.317Z,67.55
2023-05-27T19:06:50.316Z,68.03
2023-05-27T19:09:17.530Z,68.44
2023-05-27T19:11:44.637Z,68.63
2023-05-27T19:14:11.759Z,68.51
2023-05-27T19:16:38.942Z,68.74
2023-05-27T19:19:06.985Z,68.71
2023-05-27T19:21:34.219Z,67.46
2023-05-27T19:24:01.681Z,67.17
2023-05-27T19:26:28.808Z,66.96
2023-05-27T19:28:58.115Z,67.32
2023-05-27T19:31:34.018Z,67.85
2023-05-27T19:34:01.248Z,68.64
2023-05-27T19:36:29.567Z,68.53
2023-05-27T19:38:56.834Z,68.90
2023-05-27T19:41:24.158Z,68.96
2023-05-27T19:43:51.440Z,69.24
2023-05-27T19:46:18.889Z,69.61
2023-05-27T19:48:46.167Z,69.66
2023-05-27T19:51:13.954Z,70.04
2023-05-27T19:53:46.164Z,69.73
2023-05-27T19:56:13.271Z,70.36
2023-05-27T19:58:40.576Z,70.52
2023-05-27T20:01:09.424Z,69.72
2023-05-27T20:03:36.900Z,70.13
2023-05-27T20:06:04.401Z,70.24
2023-05-27T20:08:31.609Z,70.30
2023-05-27T20:10:58.829Z,70.93
2023-05-27T20:13:26.063Z,71.11
2023-05-27T20:15:53.259Z,70.53
2023-05-27T20:18:20.727Z,71.03
2023-05-27T20:20:47.898Z,71.34
2023-05-27T20:23:15.052Z,71.87
2023-05-27T20:25:42.566Z,71.80
2023-05-27T20:28:10.793Z,71.05
2023-05-27T20:30:38.110Z,71.10
2023-05-27T20:33:07.994Z,71.50
2023-05-27T20:35:35.281Z,71.88
2023-05-27T20:38:02.537Z,71.23
2023-05-27T20:40:29.948Z,71.70
2023-05-27T20:43:00.066Z,70.87
2023-05-27T20:45:27.504Z,70.94
2023-05-27T20:47:54.808Z,69.51
2023-05-27T20:50:22.913Z,70.78
2023-05-27T20:52:50.125Z,71.27
2023-05-27T20:55:17.434Z,71.99
2023-05-27T20:57:44.812Z,72.69
2023-05-27T21:00:12.881Z,73.36
2023-05-27T21:02:40.231Z,73.12
2023-05-27T21:05:07.908Z,73.79
2023-05-27T21:07:35.079Z,74.35
2023-05-27T21:10:03.593Z,73.87
2023-05-27T21:12:30.897Z,74.04
2023-05-27T21:14:57.972Z,73.75
2023-05-27T21:17:25.084Z,74.41
2023-05-27T21:19:53.600Z,74.83
2023-05-27T21:22:23.494Z,74.38
2023-05-27T21:24:50.776Z,73.84
2023-05-27T21:27:17.924Z,74.04
2023-05-27T21:29:45.036Z,74.06
2023-05-27T21:32:12.309Z,74.71
2023-05-27T21:34:40.211Z,74.47
2023-05-27T21:37:07.642Z,74.47
2023-05-27T21:39:34.970Z,75.47
2023-05-27T21:42:02.902Z,74.21
2023-05-27T21:44:30.556Z,73.70
2023-05-27T21:46:57.811Z,73.58
2023-05-27T21:49:26.510Z,74.01
2023-05-27T21:51:53.667Z,73.56
2023-05-27T21:54:21.044Z,73.19
2023-05-27T21:56:48.307Z,73.88
2023-05-27T21:59:15.656Z,74.29
2023-05-27T22:01:43.107Z,75.65
2023-05-27T22:04:11.640Z,75.36
2023-05-27T22:06:51.293Z,75.58
2023-05-27T22:09:18.382Z,74.91
2023-05-27T22:11:45.822Z,73.86
2023-05-27T22:14:13.090Z,73.09
2023-05-27T22:16:40.166Z,73.81
2023-05-27T22:19:09.483Z,74.56
2023-05-27T22:21:36.692Z,74.57
2023-05-27T22:24:04.005Z,74.76
2023-05-27T22:26:31.110Z,74.07
2023-05-27T22:29:02.861Z,72.99
2023-05-27T22:31:30.985Z,73.03
2023-05-27T22:33:58.810Z,73.98
2023-05-27T22:36:26.032Z,74.63
2023-05-27T22:38:53.195Z,74.92
2023-05-27T22:41:21.241Z,75.31
2023-05-27T22:43:48.508Z,75.28
2023-05-27T22:46:18.208Z,74.82
2023-05-27T22:48:46.881Z,75.38
2023-05-27T22:51:16.020Z,75.67
2023-05-27T22:53:44.267Z,75.40
2023-05-27T22:56:15.703Z,74.37
2023-05-27T22:58:44.601Z,74.97
2023-05-27T23:01:12.869Z,75.65
2023-05-27T23:03:40.248Z,75.10
2023-05-27T23:06:08.536Z,76.83
2023-05-27T23:08:40.006Z,76.36
2023-05-27T23:11:07.265Z,76.23
2023-05-27T23:13:34.486Z,74.47
2023-05-27T23:16:09.323Z,73.06
2023-05-27T23:18:39.079Z,74.14
2023-05-27T23:21:08.010Z,74.03
2023-05-27T23:23:35.643Z,74.76
2023-05-27T23:26:02.870Z,74.52
2023-05-27T23:28:30.167Z,74.38
2023-05-27T23:30:58.506Z,74.65
2023-05-27T23:33:25.958Z,74.76
2023-05-27T23:35:54.263Z,74.76
2023-05-27T23:38:23.295Z,75.04
2023-05-27T23:40:51.637Z,74.79
2023-05-27T23:43:19.148Z,75.10
2023-05-27T23:45:46.259Z,74.96
2023-05-27T23:48:17.204Z,75.65
2023-05-27T23:50:44.315Z,76.05
2023-05-27T23:53:11.646Z,76.62
2023-05-27T23:55:39.451Z,75.98
2023-05-27T23:58:07.083Z,76.58
